Time;durP1;ratioP1;P1;durP2;ratioP2;P2;SDS_P1;SDS_P2;PMS_P1;PMS_P2;Temp;Humidity;BMP_temperature;BMP_pressure;BME280_temperature;BME280_humidity;BME280_pressure;Samples;Min_cycle;Max_cycle;Signal;HPM_P1;HPM_P2
2023/07/03 00:00:45;;;;;;;7.50;4.17;;;;;;;14.74;100.00;100735.91;5057216;28;20208;-76
2023/07/03 00:03:13;;;;;;;10.17;4.13;;;;;;;14.70;100.00;100741.09;5052071;28;20204;-76
2023/07/03 00:05:43;;;;;;;8.57;3.90;;;;;;;14.66;100.00;100747.09;5069775;28;20193;-76
2023/07/03 00:08:10;;;;;;;8.27;3.60;;;;;;;14.66;100.00;100754.81;5051248;28;20216;-76
2023/07/03 00:10:36;;;;;;;9.73;3.87;;;;;;;14.64;100.00;100752.25;5043352;28;20202;-76
2023/07/03 00:13:01;;;;;;;9.77;4.43;;;;;;;14.61;100.00;100747.09;5053814;28;20215;-76
2023/07/03 00:15:26;;;;;;;8.30;3.60;;;;;;;14.65;100.00;100750.53;5060272;28;20190;-77
2023/07/03 00:17:52;;;;;;;8.27;3.90;;;;;;;14.68;100.00;100735.09;5061338;28;20698;-76
2023/07/03 00:20:18;;;;;;;10.33;4.03;;;;;;;14.69;100.00;100736.78;5056010;28;20284;-76
2023/07/03 00:22:44;;;;;;;10.13;4.17;;;;;;;14.72;100.00;100740.22;5045210;28;20220;-76
2023/07/03 00:25:09;;;;;;;10.33;4.50;;;;;;;14.72;100.00;100736.78;5038549;28;20189;-76
2023/07/03 00:27:35;;;;;;;7.03;3.90;;;;;;;14.71;100.00;100729.91;5064271;28;20292;-77
2023/07/03 00:30:02;;;;;;;9.57;4.10;;;;;;;14.71;100.00;100727.31;5050559;28;20221;-75
2023/07/03 00:32:28;;;;;;;6.90;3.43;;;;;;;14.71;100.00;100732.47;5056789;28;20233;-77
2023/07/03 00:34:54;;;;;;;9.53;4.30;;;;;;;14.67;100.00;100741.06;5061963;28;20199;-76
2023/07/03 00:37:21;;;;;;;9.47;4.27;;;;;;;14.61;100.00;100757.41;5045027;28;20217;-77
2023/07/03 00:39:47;;;;;;;12.97;4.60;;;;;;;14.52;100.00;100767.69;5064684;28;20197;-76
2023/07/03 00:42:12;;;;;;;8.33;4.10;;;;;;;14.48;100.00;100765.97;5058089;28;20190;-76
2023/07/03 00:44:38;;;;;;;8.53;4.23;;;;;;;14.44;100.00;100782.28;5064540;28;20224;-76
2023/07/03 00:47:05;;;;;;;8.77;4.10;;;;;;;14.38;100.00;100781.38;5058215;28;20240;-77
2023/07/03 00:49:31;;;;;;;7.37;4.47;;;;;;;14.33;100.00;100790.81;5062560;28;20189;-77
2023/07/03 00:51:57;;;;;;;7.80;3.93;;;;;;;14.32;100.00;100786.53;5051108;28;20197;-77
2023/07/03 00:54:23;;;;;;;9.10;3.97;;;;;;;14.26;100.00;100784.78;5075154;28;20256;-77
2023/07/03 00:56:49;;;;;;;10.57;4.63;;;;;;;14.20;100.00;100791.59;5067429;28;20190;-76
2023/07/03 00:59:15;;;;;;;7.83;4.07;;;;;;;14.24;100.00;100791.66;5058546;28;20642;-77
2023/07/03 01:01:53;;;;;;;7.50;4.20;;;;;;;14.30;100.00;100767.63;5047197;28;20196;-78
2023/07/03 01:04:30;;;;;;;7.90;3.57;;;;;;;14.31;100.00;100771.94;5057166;28;20181;-76
2023/07/03 01:07:07;;;;;;;8.93;4.60;;;;;;;14.28;100.00;100762.47;5063482;28;20198;-76
2023/07/03 01:09:44;;;;;;;9.07;4.67;;;;;;;14.29;100.00;100760.75;5040921;28;20193;-77
2023/07/03 01:12:10;;;;;;;12.03;4.07;;;;;;;14.27;100.00;100771.03;5044155;28;20208;-77
2023/07/03 01:14:39;;;;;;;9.50;4.07;;;;;;;14.30;100.00;100767.63;5064355;28;20646;-77
2023/07/03 01:17:09;;;;;;;11.53;4.30;;;;;;;14.34;100.00;100761.63;5053422;28;20221;-77
2023/07/03 01:19:40;;;;;;;7.13;4.13;;;;;;;14.37;100.00;100761.63;5059678;28;20237;-77
2023/07/03 01:22:28;;;;;;;8.17;3.87;;;;;;;14.44;100.00;100753.94;5060685;28;20192;-77
2023/07/03 01:24:58;;;;;;;10.33;4.40;;;;;;;14.46;100.00;100736.75;5074588;28;20554;-78
2023/07/03 01:27:30;;;;;;;9.17;4.33;;;;;;;14.50;100.00;100740.22;5057036;28;20618;-77
2023/07/03 01:29:57;;;;;;;11.17;4.20;;;;;;;14.57;100.00;100729.03;5063563;28;20193;-77
2023/07/03 01:32:26;;;;;;;8.80;3.80;;;;;;;14.62;100.00;100735.06;5063357;28;20280;-77
2023/07/03 01:34:53;;;;;;;8.47;3.90;;;;;;;14.60;100.00;100737.63;5063378;28;20200;-76
2023/07/03 01:37:23;;;;;;;10.37;4.47;;;;;;;14.67;100.00;100729.06;5041727;28;20240;-77
2023/07/03 01:39:51;;;;;;;8.63;4.03;;;;;;;14.67;100.00;100720.44;5064141;28;20193;-76
2023/07/03 01:42:17;;;;;;;9.53;4.20;;;;;;;14.69;100.00;100718.75;5039613;28;20305;-77
2023/07/03 01:44:43;;;;;;;9.67;4.90;;;;;;;14.70;100.00;100721.34;5067649;28;20280;-77
2023/07/03 01:47:12;;;;;;;7.63;3.87;;;;;;;14.71;100.00;100725.63;5060001;28;20308;-77
2023/07/03 01:49:38;;;;;;;8.33;4.13;;;;;;;14.75;100.00;100719.63;5047881;28;20235;-77
2023/07/03 01:52:39;;;;;;;8.37;4.50;;;;;;;14.80;100.00;100720.47;5041532;28;20205;-77
2023/07/03 01:55:12;;;;;;;11.90;4.40;;;;;;;14.80;100.00;100724.75;5055570;28;20630;-78
2023/07/03 01:57:41;;;;;;;10.30;4.50;;;;;;;14.82;100.00;100723.91;5056654;28;20212;-77
2023/07/03 02:00:10;;;;;;;7.37;4.67;;;;;;;14.84;100.00;100717.03;5050201;28;20689;-77
2023/07/03 02:02:48;;;;;;;10.57;4.30;;;;;;;14.90;100.00;100717.03;5057662;28;20200;-77
2023/07/03 02:05:19;;;;;;;14.30;4.47;;;;;;;14.90;100.00;100717.03;5055762;28;20678;-77
2023/07/03 02:07:47;;;;;;;6.43;3.57;;;;;;;14.94;100.00;100715.31;5065438;28;20212;-77
2023/07/03 02:10:13;;;;;;;9.70;3.97;;;;;;;14.94;100.00;100720.47;5049220;28;20202;-78
2023/07/03 02:12:41;;;;;;;9.37;4.10;;;;;;;14.94;100.00;100716.19;5053012;28;20287;-77
2023/07/03 02:15:08;;;;;;;8.10;4.30;;;;;;;14.96;100.00;100711.03;5065209;28;20204;-77
2023/07/03 02:17:34;;;;;;;8.87;4.67;;;;;;;14.96;100.00;100713.59;5061719;28;20217;-77
2023/07/03 02:19:59;;;;;;;8.40;4.50;;;;;;;14.96;100.00;100718.75;5055175;28;20211;-77
2023/07/03 02:22:25;;;;;;;8.97;4.23;;;;;;;15.00;100.00;100697.25;5045920;28;20201;-78
2023/07/03 02:24:51;;;;;;;8.97;4.57;;;;;;;15.00;100.00;100700.69;5064855;28;20200;-77
2023/07/03 02:27:16;;;;;;;16.67;4.97;;;;;;;14.99;100.00;100708.41;5059214;28;20213;-76
2023/07/03 02:29:41;;;;;;;10.57;4.47;;;;;;;14.99;100.00;100704.13;5055230;28;20677;-76
2023/07/03 02:32:09;;;;;;;11.13;4.40;;;;;;;15.03;100.00;100694.66;5061393;28;20259;-76
2023/07/03 02:34:35;;;;;;;10.60;4.07;;;;;;;15.02;100.00;100699.00;5061923;28;20212;-76
2023/07/03 02:37:00;;;;;;;8.27;4.17;;;;;;;15.03;100.00;100687.81;5053274;28;20213;-77
2023/07/03 02:39:27;;;;;;;8.63;4.27;;;;;;;15.08;100.00;100687.78;5058219;28;20277;-76
2023/07/03 02:41:52;;;;;;;9.90;4.03;;;;;;;15.07;100.00;100679.22;5078994;28;20639;-77
2023/07/03 02:44:18;;;;;;;10.10;4.83;;;;;;;15.13;100.00;100674.03;5048712;28;20194;-78
2023/07/03 02:46:43;;;;;;;12.13;4.30;;;;;;;15.13;100.00;100675.72;5053401;28;20189;-76
2023/07/03 02:49:10;;;;;;;11.03;4.60;;;;;;;15.17;100.00;100669.72;5058246;28;20188;-76
2023/07/03 02:51:36;;;;;;;9.77;4.30;;;;;;;15.15;100.00;100669.72;5072322;28;20656;-77
2023/07/03 02:54:04;;;;;;;13.47;5.27;;;;;;;15.19;100.00;100668.00;5048972;28;20219;-76
2023/07/03 02:56:30;;;;;;;11.37;5.00;;;;;;;15.20;100.00;100651.66;5044421;28;20190;-77
2023/07/03 02:58:55;;;;;;;10.97;4.20;;;;;;;15.18;100.00;100666.25;5057376;28;20223;-77
2023/07/03 03:01:26;;;;;;;10.97;3.90;;;;;;;15.19;100.00;100662.84;5056529;28;20221;-77
2023/07/03 03:03:52;;;;;;;10.10;4.50;;;;;;;15.14;100.00;100675.75;5031416;28;20182;-77
2023/07/03 03:06:18;;;;;;;7.97;4.03;;;;;;;15.08;100.00;100678.34;5067280;28;20282;-76
2023/07/03 03:08:45;;;;;;;7.80;4.30;;;;;;;15.12;100.00;100674.91;5058539;28;20197;-76
2023/07/03 03:11:11;;;;;;;10.03;4.07;;;;;;;15.10;100.00;100674.03;5050391;28;20217;-76
2023/07/03 03:13:38;;;;;;;9.67;4.63;;;;;;;15.07;100.00;100673.19;5053161;28;20209;-77
2023/07/03 03:16:04;;;;;;;11.73;4.40;;;;;;;15.05;100.00;100664.59;5050531;28;20730;-76
2023/07/03 03:18:29;;;;;;;10.37;4.87;;;;;;;15.01;100.00;100674.03;5053012;28;20216;-76
2023/07/03 03:20:55;;;;;;;10.37;3.97;;;;;;;14.97;100.00;100686.94;5057375;28;20200;-78
2023/07/03 03:23:21;;;;;;;10.23;4.27;;;;;;;14.96;100.00;100705.88;5050472;28;20189;-76
2023/07/03 03:25:46;;;;;;;11.23;4.40;;;;;;;15.01;100.00;100689.50;5058677;28;20189;-76
2023/07/03 03:28:12;;;;;;;10.43;4.30;;;;;;;14.96;100.00;100703.28;5054681;28;20209;-76
2023/07/03 03:30:39;;;;;;;9.27;4.70;;;;;;;14.96;100.00;100705.88;5059571;28;20210;-77
2023/07/03 03:33:05;;;;;;;8.47;4.33;;;;;;;14.98;100.00;100705.00;5036561;28;20251;-77
2023/07/03 03:35:30;;;;;;;13.17;4.80;;;;;;;14.94;100.00;100708.44;5061327;28;20196;-77
2023/07/03 03:37:56;;;;;;;10.73;5.00;;;;;;;14.94;100.00;100712.72;5058884;28;20216;-78
2023/07/03 03:40:22;;;;;;;11.63;4.47;;;;;;;14.91;100.00;100718.75;5056073;28;20201;-77
2023/07/03 03:42:47;;;;;;;12.63;5.00;;;;;;;14.90;100.00;100716.16;5078453;28;20177;-77
2023/07/03 03:45:14;;;;;;;9.57;4.30;;;;;;;14.88;100.00;100702.44;5050100;28;20182;-76
2023/07/03 03:47:40;;;;;;;11.40;4.87;;;;;;;14.93;100.00;100704.16;5056909;28;20341;-77
2023/07/03 03:50:06;;;;;;;13.63;5.00;;;;;;;14.95;100.00;100704.13;5059792;28;20204;-77
2023/07/03 03:52:37;;;;;;;16.20;5.30;;;;;;;14.97;100.00;100713.56;5077354;28;20619;-77
2023/07/03 03:55:03;;;;;;;10.53;4.67;;;;;;;14.98;100.00;100711.88;5058618;28;20196;-77
2023/07/03 03:57:29;;;;;;;10.30;4.60;;;;;;;15.02;100.00;100708.44;5075403;28;20209;-77
2023/07/03 03:59:54;;;;;;;11.17;4.93;;;;;;;15.07;100.00;100706.69;5055421;28;20673;-76
2023/07/03 04:02:20;;;;;;;11.77;5.23;;;;;;;15.09;100.00;100703.25;5036045;28;20198;-77
2023/07/03 04:04:45;;;;;;;9.47;4.53;;;;;;;15.11;100.00;100709.25;5058246;28;20220;-77
2023/07/03 04:07:11;;;;;;;10.20;5.20;;;;;;;15.11;100.00;100711.00;5061640;28;20252;-77
2023/07/03 04:09:36;;;;;;;11.33;4.87;;;;;;;15.13;100.00;100704.97;5066345;28;20280;-76
2023/07/03 04:12:02;;;;;;;12.30;5.27;;;;;;;15.15;100.00;100708.41;5059963;28;20205;-77
2023/07/03 04:14:27;;;;;;;13.67;5.00;;;;;;;15.16;100.00;100711.84;5056741;28;20206;-77
2023/07/03 04:16:57;;;;;;;10.83;4.90;;;;;;;15.19;100.00;100711.88;5065531;28;20689;-76
2023/07/03 04:19:23;;;;;;;13.47;5.53;;;;;;;15.21;100.00;100718.75;5063690;28;20197;-77
2023/07/03 04:21:48;;;;;;;12.63;5.37;;;;;;;15.25;100.00;100714.44;5063157;28;20280;-77
2023/07/03 04:24:14;;;;;;;15.13;5.33;;;;;;;15.28;100.00;100717.00;5061991;28;20232;-76
2023/07/03 04:26:41;;;;;;;9.17;4.97;;;;;;;15.32;100.00;100723.84;5059686;28;20262;-77
2023/07/03 04:29:07;;;;;;;9.30;4.77;;;;;;;15.35;100.00;100711.00;5062490;28;20207;-77
2023/07/03 04:31:33;;;;;;;11.57;5.40;;;;;;;15.39;100.00;100705.84;5061876;28;20193;-77
2023/07/03 04:33:59;;;;;;;11.53;4.93;;;;;;;15.40;100.00;100701.50;5060215;28;20225;-77
2023/07/03 04:36:25;;;;;;;16.03;5.23;;;;;;;15.43;100.00;100701.53;5055777;28;20244;-77
2023/07/03 04:38:56;;;;;;;12.20;5.07;;;;;;;15.41;100.00;100693.78;5062705;28;20209;-76
2023/07/03 04:41:23;;;;;;;15.03;5.50;;;;;;;15.43;100.00;100704.94;5050013;28;20204;-77
2023/07/03 04:43:51;;;;;;;15.23;5.67;;;;;;;15.42;100.00;100692.06;5056734;28;20189;-77
2023/07/03 04:46:25;;;;;;;11.63;5.30;;;;;;;15.49;100.00;100689.47;5056272;28;20228;-76
2023/07/03 04:48:59;;;;;;;12.63;5.50;;;;;;;15.55;100.00;100678.22;5069997;28;20228;-77
2023/07/03 04:51:24;;;;;;;10.87;5.10;;;;;;;15.64;100.00;100676.50;5056904;28;20201;-76
2023/07/03 04:53:50;;;;;;;14.10;5.33;;;;;;;15.71;100.00;100661.84;5057548;28;20205;-75
2023/07/03 04:56:15;;;;;;;15.47;5.97;;;;;;;15.70;100.00;100673.03;5061467;28;20236;-76
2023/07/03 04:58:41;;;;;;;13.97;6.00;;;;;;;15.69;100.00;100672.16;5060861;28;20217;-75
2023/07/03 05:01:12;;;;;;;11.93;5.30;;;;;;;15.68;100.00;100677.34;5071341;28;20204;-77
2023/07/03 05:03:39;;;;;;;14.00;5.57;;;;;;;15.71;100.00;100670.44;5051431;28;20209;-77
2023/07/03 05:06:05;;;;;;;17.40;6.50;;;;;;;15.79;100.00;100662.66;5063429;28;20196;-77
2023/07/03 05:08:33;;;;;;;11.77;5.23;;;;;;;15.79;100.00;100666.09;5045641;28;20216;-78
2023/07/03 05:10:59;;;;;;;10.13;4.87;;;;;;;15.90;100.00;100663.47;5060445;28;20197;-77
2023/07/03 05:13:26;;;;;;;14.00;5.53;;;;;;;16.04;100.00;100652.22;5059481;28;20747;-77
2023/07/03 05:15:53;;;;;;;17.90;5.67;;;;;;;16.13;100.00;100666.78;5047514;28;21081;-77
2023/07/03 05:18:18;;;;;;;15.60;5.70;;;;;;;16.23;100.00;100648.63;5067838;28;20573;-77
2023/07/03 05:20:44;;;;;;;13.13;5.87;;;;;;;16.45;100.00;100647.66;5052159;28;20197;-77
2023/07/03 05:23:13;;;;;;;14.30;5.43;;;;;;;16.41;100.00;100630.44;5064162;28;20198;-78
2023/07/03 05:25:39;;;;;;;17.87;5.37;;;;;;;16.52;100.00;100620.88;5061798;28;20239;-77
2023/07/03 05:28:04;;;;;;;14.83;5.60;;;;;;;16.67;100.00;100625.06;5064996;28;20594;-77
2023/07/03 05:30:30;;;;;;;13.50;5.93;;;;;;;16.75;100.00;100610.31;5059566;28;20267;-77
2023/07/03 05:32:55;;;;;;;13.33;5.90;;;;;;;16.48;100.00;100623.50;5059210;28;20218;-77
2023/07/03 05:35:21;;;;;;;17.93;5.63;;;;;;;16.33;100.00;100637.34;5041979;28;20193;-76
2023/07/03 05:37:46;;;;;;;15.20;5.53;;;;;;;16.54;100.00;100644.97;5061539;28;20236;-78
2023/07/03 05:40:14;;;;;;;13.30;4.90;;;;;;;16.63;100.00;100642.31;5062024;28;20193;-77
2023/07/03 05:42:40;;;;;;;13.40;6.07;;;;;;;16.74;100.00;100644.81;5048514;28;20216;-78
2023/07/03 05:45:07;;;;;;;13.93;5.20;;;;;;;16.86;100.00;100632.63;5065055;28;20201;-77
2023/07/03 05:47:35;;;;;;;12.23;5.57;;;;;;;16.84;100.00;100641.25;5060041;28;20592;-77
2023/07/03 05:50:01;;;;;;;14.73;5.13;;;;;;;16.97;100.00;100638.56;5047594;28;20251;-77
2023/07/03 05:52:26;;;;;;;13.93;5.00;;;;;;;17.08;100.00;100649.66;5061751;28;20255;-77
2023/07/03 05:54:52;;;;;;;16.57;5.50;;;;;;;17.13;100.00;100652.22;5066533;28;20193;-76
2023/07/03 05:57:18;;;;;;;11.77;4.90;;;;;;;17.25;100.00;100631.34;5063305;28;20221;-77
2023/07/03 05:59:43;;;;;;;13.10;4.70;;;;;;;17.37;100.00;100633.81;5066277;28;20188;-77
2023/07/03 06:02:12;;;;;;;14.23;5.13;;;;;;;17.59;100.00;100645.69;5055954;28;20204;-78
2023/07/03 06:04:38;;;;;;;15.40;4.27;;;;;;;17.70;100.00;100616.19;5046852;28;20296;-77
2023/07/03 06:07:04;;;;;;;15.07;5.30;;;;;;;17.81;100.00;100605.63;5063954;28;20292;-77
2023/07/03 06:09:30;;;;;;;15.67;4.83;;;;;;;17.93;100.00;100595.13;5061958;28;20208;-77
2023/07/03 06:11:56;;;;;;;15.93;4.20;;;;;;;18.08;100.00;100585.38;5056646;28;20255;-78
2023/07/03 06:14:22;;;;;;;12.40;4.53;;;;;;;18.21;100.00;100592.09;5041597;28;20217;-76
2023/07/03 06:16:49;;;;;;;12.13;4.87;;;;;;;18.21;100.00;100619.75;5057410;28;20204;-77
2023/07/03 06:19:17;;;;;;;12.80;5.00;;;;;;;18.16;100.00;100635.38;5072231;28;20261;-76
2023/07/03 06:21:42;;;;;;;14.73;5.40;;;;;;;18.06;100.00;100622.56;5061568;28;20216;-76
2023/07/03 06:24:10;;;;;;;14.67;4.73;;;;;;;18.47;100.00;100615.06;5074938;28;20569;-77
2023/07/03 06:26:38;;;;;;;11.30;5.07;;;;;;;17.63;100.00;100640.44;5053307;28;20194;-77
2023/07/03 06:29:05;;;;;;;16.67;4.87;;;;;;;17.74;100.00;100669.63;5055617;28;20225;-76
2023/07/03 06:31:31;;;;;;;14.97;5.13;;;;;;;17.58;100.00;100690.56;5058183;28;20197;-76
2023/07/03 06:33:57;;;;;;;12.37;4.63;;;;;;;17.32;100.00;100677.84;5078327;28;20223;-76
2023/07/03 06:36:23;;;;;;;14.33;4.77;;;;;;;17.32;100.00;100683.03;5078017;28;20265;-76
2023/07/03 06:38:52;;;;;;;16.70;5.17;;;;;;;17.32;100.00;100693.38;5062281;28;20201;-76
2023/07/03 06:41:19;;;;;;;13.43;5.10;;;;;;;17.10;100.00;100698.81;5064602;28;20197;-77
2023/07/03 06:43:44;;;;;;;12.10;4.03;;;;;;;17.34;100.00;100689.06;5066451;28;20232;-76
2023/07/03 06:46:14;;;;;;;13.03;4.33;;;;;;;17.50;100.00;100687.22;5055592;28;20202;-76
2023/07/03 06:48:40;;;;;;;10.83;4.23;;;;;;;17.21;100.00;100703.00;5055247;28;20213;-76
2023/07/03 06:51:07;;;;;;;11.77;4.33;;;;;;;17.10;100.00;100696.22;5053162;28;20204;-77
2023/07/03 06:53:33;;;;;;;12.83;3.97;;;;;;;17.14;100.00;100697.91;5054919;28;20220;-76
2023/07/03 06:55:59;;;;;;;10.97;4.43;;;;;;;17.49;100.00;100681.16;5041912;28;20193;-77
2023/07/03 06:58:26;;;;;;;8.70;3.70;;;;;;;17.51;100.00;100684.63;5037454;28;20213;-76
2023/07/03 07:00:51;;;;;;;12.90;4.40;;;;;;;17.28;100.00;100670.16;5053957;28;20193;-76
2023/07/03 07:03:17;;;;;;;12.10;3.77;;;;;;;17.30;100.00;100679.63;5053060;28;20601;-77
2023/07/03 07:05:42;;;;;;;13.50;4.00;;;;;;;17.69;100.00;100683.53;5037062;28;20196;-77
2023/07/03 07:08:08;;;;;;;8.40;3.37;;;;;;;17.61;100.00;100651.69;5049934;28;20213;-76
2023/07/03 07:10:38;;;;;;;11.87;3.83;;;;;;;17.61;100.00;100660.31;5055277;28;20255;-76
2023/07/03 07:13:03;;;;;;;11.97;3.93;;;;;;;17.77;100.00;100669.59;5052425;28;20310;-77
2023/07/03 07:15:29;;;;;;;11.80;3.70;;;;;;;17.62;100.00;100654.25;5072566;28;20186;-77
2023/07/03 07:17:54;;;;;;;12.07;4.03;;;;;;;17.59;100.00;100666.41;5061149;28;20232;-76
2023/07/03 07:20:20;;;;;;;11.57;3.77;;;;;;;18.07;100.00;100645.88;5058597;28;20221;-77
2023/07/03 07:22:46;;;;;;;11.10;4.03;;;;;;;18.13;100.00;100635.41;5062744;28;20268;-75
2023/07/03 07:25:12;;;;;;;11.30;3.43;;;;;;;18.19;100.00;100624.13;5051597;28;20261;-75
2023/07/03 07:27:37;;;;;;;11.10;3.53;;;;;;;18.41;100.00;100613.41;5072331;28;20212;-76
2023/07/03 07:30:03;;;;;;;11.53;2.97;;;;;;;18.06;100.00;100600.09;5062084;28;20196;-76
2023/07/03 07:32:28;;;;;;;10.30;3.50;;;;;;;18.68;100.00;100604.31;5077637;28;20194;-75
2023/07/03 07:34:54;;;;;;;11.53;3.43;;;;;;;18.75;100.00;100578.22;5048271;28;20200;-76
2023/07/03 07:37:19;;;;;;;14.83;4.40;;;;;;;18.71;100.00;100592.16;5059964;28;20218;-75
2023/07/03 07:39:45;;;;;;;9.40;3.63;;;;;;;18.31;100.00;100595.38;5062467;28;20176;-75
2023/07/03 07:42:10;;;;;;;8.90;3.63;;;;;;;18.30;100.00;100610.09;5057555;28;20280;-76
2023/07/03 07:44:36;;;;;;;8.50;3.50;;;;;;;18.95;100.00;100619.38;5062506;28;20277;-75
2023/07/03 07:47:01;;;;;;;12.37;3.67;;;;;;;19.20;100.00;100590.34;5044954;28;20247;-76
2023/07/03 07:49:27;;;;;;;8.20;3.70;;;;;;;19.32;100.00;100584.06;5070743;28;20276;-75
2023/07/03 07:51:52;;;;;;;11.20;3.80;;;;;;;19.42;100.00;100589.06;5056786;28;20677;-74
2023/07/03 07:54:17;;;;;;;10.70;3.27;;;;;;;19.22;100.00;100580.84;5051942;28;20682;-76
2023/07/03 07:56:43;;;;;;;12.27;3.50;;;;;;;19.48;100.00;100559.50;5053146;28;20611;-76
2023/07/03 07:59:08;;;;;;;10.77;3.63;;;;;;;19.90;100.00;100549.00;5035373;28;20196;-76
2023/07/03 08:01:34;;;;;;;10.00;3.30;;;;;;;19.76;100.00;100516.44;5056814;28;20269;-76
2023/07/03 08:03:59;;;;;;;7.33;2.90;;;;;;;20.11;100.00;100543.34;5064231;28;20217;-75
2023/07/03 08:06:25;;;;;;;8.57;3.10;;;;;;;19.89;100.00;100520.44;5056290;28;20194;-76
2023/07/03 08:08:50;;;;;;;12.67;3.40;;;;;;;19.78;100.00;100523.31;5050815;28;20275;-76
2023/07/03 08:11:16;;;;;;;9.87;2.80;;;;;;;19.76;100.00;100538.06;5056857;28;20203;-76
2023/07/03 08:13:42;;;;;;;10.63;3.93;;;;;;;19.36;100.00;100583.13;5050999;28;20216;-76
2023/07/03 08:16:10;;;;;;;9.37;3.87;;;;;;;19.22;100.00;100605.91;5056003;28;20656;-76
2023/07/03 08:18:35;;;;;;;10.40;3.63;;;;;;;19.22;100.00;100598.09;5058906;28;20216;-75
2023/07/03 08:21:01;;;;;;;10.80;3.63;;;;;;;18.51;100.00;100614.97;5053931;28;20706;-75
2023/07/03 08:23:26;;;;;;;12.03;3.90;;;;;;;18.92;100.00;100625.50;5071106;28;20236;-76
2023/07/03 08:25:54;;;;;;;10.57;3.47;;;;;;;19.79;100.00;100591.72;5055766;28;20193;-76
2023/07/03 08:28:20;;;;;;;11.53;3.73;;;;;;;19.46;100.00;100585.53;5064680;28;20224;-76
2023/07/03 08:30:46;;;;;;;7.87;2.80;;;;;;;19.15;100.00;100601.69;5058482;28;20201;-76
2023/07/03 08:33:12;;;;;;;9.37;3.10;;;;;;;19.81;100.00;100558.78;5056580;28;20215;-75
2023/07/03 08:35:38;;;;;;;11.57;3.40;;;;;;;19.94;100.00;100575.81;5050279;28;20216;-75
2023/07/03 08:38:03;;;;;;;11.20;3.07;;;;;;;20.23;100.00;100573.41;5051657;28;20725;-76
2023/07/03 08:40:29;;;;;;;11.40;3.43;;;;;;;20.05;100.00;100553.88;5047445;28;20276;-77
2023/07/03 08:42:58;;;;;;;11.07;3.33;;;;;;;20.32;99.19;100539.34;5049608;28;20182;-75
2023/07/03 08:45:44;;;;;;;9.37;3.53;;;;;;;20.08;98.96;100529.56;5057253;28;20263;-76
2023/07/03 08:48:23;;;;;;;14.37;3.37;;;;;;;20.22;98.96;100536.13;5047512;28;20217;-75
2023/07/03 08:50:54;;;;;;;9.63;3.00;;;;;;;20.90;91.34;100503.97;5042166;28;20185;-76
2023/07/03 08:53:24;;;;;;;9.80;3.30;;;;;;;21.44;83.63;100480.66;5045251;28;20210;-76
2023/07/03 08:55:59;;;;;;;9.33;3.30;;;;;;;20.19;84.59;100497.22;5050889;28;20655;-75
2023/07/03 08:58:25;;;;;;;7.90;2.80;;;;;;;19.64;90.49;100533.16;5055232;28;20300;-76
2023/07/03 09:01:04;;;;;;;9.87;3.47;;;;;;;19.36;100.00;100620.38;5051638;28;20281;-75
2023/07/03 09:04:00;;;;;;;11.37;3.17;;;;;;;19.49;100.00;100724.88;5048862;28;20189;-75
2023/07/03 09:06:47;;;;;;;8.33;2.60;;;;;;;19.07;100.00;100647.72;5062085;28;20225;-75
2023/07/03 09:09:15;;;;;;;11.10;2.50;;;;;;;18.87;100.00;100639.41;5073434;28;20725;-76
2023/07/03 09:11:49;;;;;;;6.73;2.20;;;;;;;18.74;100.00;100643.97;5039673;28;20196;-76
2023/07/03 09:14:23;;;;;;;12.23;2.70;;;;;;;18.45;100.00;100635.81;5064017;28;20228;-75
2023/07/03 09:16:48;;;;;;;10.30;2.53;;;;;;;18.62;100.00;100643.31;5031183;28;20194;-75
2023/07/03 09:19:20;;;;;;;6.07;2.37;;;;;;;18.69;100.00;100639.75;5055413;28;20194;-74
2023/07/03 09:21:48;;;;;;;8.23;2.50;;;;;;;19.03;100.00;100653.84;5051278;28;20300;-76
2023/07/03 09:24:28;;;;;;;7.10;2.83;;;;;;;19.85;100.00;100643.59;5066097;28;20196;-78
2023/07/03 09:26:59;;;;;;;8.00;2.53;;;;;;;20.19;100.00;100624.63;5053655;28;20204;-75
2023/07/03 09:29:26;;;;;;;9.17;2.33;;;;;;;20.59;100.00;100612.34;5054169;28;20186;-76
2023/07/03 09:31:53;;;;;;;11.83;2.93;;;;;;;20.74;100.00;100579.91;5048527;28;21098;-76
2023/07/03 09:34:19;;;;;;;9.60;2.67;;;;;;;19.99;100.00;100620.75;5056507;28;20347;-76
2023/07/03 09:36:45;;;;;;;6.87;2.77;;;;;;;19.28;100.00;100635.22;5054533;28;20659;-76
2023/07/03 09:39:13;;;;;;;8.57;2.47;;;;;;;19.76;100.00;100649.81;5039091;28;20305;-77
2023/07/03 09:41:40;;;;;;;11.30;3.23;;;;;;;19.83;100.00;100659.22;5054795;28;20999;-76
2023/07/03 09:44:19;;;;;;;8.30;2.63;;;;;;;19.66;100.00;100665.66;5058552;28;20196;-77
2023/07/03 09:46:46;;;;;;;9.37;3.47;;;;;;;19.54;100.00;100708.31;5056065;28;20197;-77
2023/07/03 09:49:22;;;;;;;12.23;3.00;;;;;;;19.61;100.00;100694.31;5074326;28;20738;-76
2023/07/03 09:51:53;;;;;;;6.20;2.63;;;;;;;19.60;100.00;100703.00;5048828;28;20188;-76
2023/07/03 09:54:21;;;;;;;10.00;2.70;;;;;;;19.80;100.00;100710.41;5059809;28;20221;-76
2023/07/03 09:56:49;;;;;;;8.47;2.93;;;;;;;20.24;100.00;100699.94;5060279;28;20266;-78
2023/07/03 09:59:19;;;;;;;9.60;2.87;;;;;;;20.21;100.00;100713.00;5055720;28;20591;-76
2023/07/03 10:01:45;;;;;;;7.83;2.90;;;;;;;19.95;100.00;100708.31;5062035;28;20209;-77
2023/07/03 10:04:14;;;;;;;8.83;3.33;;;;;;;19.73;100.00;100721.81;5036194;28;20192;-76
2023/07/03 10:06:50;;;;;;;10.43;3.03;;;;;;;19.74;100.00;100736.50;5057053;28;20185;-77
2023/07/03 10:09:25;;;;;;;9.83;3.20;;;;;;;19.64;100.00;100793.00;5056015;28;20188;-77
2023/07/03 10:12:09;;;;;;;11.40;3.50;;;;;;;19.49;100.00;100818.41;5053574;28;20204;-76
2023/07/03 10:14:45;;;;;;;7.77;2.90;;;;;;;19.50;100.00;100800.19;5055304;28;20261;-76
2023/07/03 10:17:13;;;;;;;9.37;2.50;;;;;;;19.80;100.00;100758.03;5061691;28;20221;-75
2023/07/03 10:19:42;;;;;;;9.60;2.53;;;;;;;20.07;100.00;100692.47;5061203;28;20192;-76
2023/07/03 10:22:09;;;;;;;7.80;2.20;;;;;;;20.45;100.00;100679.50;5076243;28;20204;-76
2023/07/03 10:24:35;;;;;;;9.40;2.90;;;;;;;20.38;100.00;100659.72;5060983;28;20193;-76
2023/07/03 10:27:02;;;;;;;4.07;2.20;;;;;;;20.30;96.19;100607.03;5055834;28;20197;-76
2023/07/03 10:29:44;;;;;;;8.10;2.47;;;;;;;20.94;94.53;100606.28;5039106;28;20198;-74
2023/07/03 10:32:13;;;;;;;5.53;1.90;;;;;;;21.53;96.19;100600.28;5051110;28;20217;-76
2023/07/03 10:34:47;;;;;;;7.90;2.27;;;;;;;21.47;80.99;100559.59;5053444;28;20682;-77
2023/07/03 10:37:15;;;;;;;7.07;3.90;;;;;;;21.71;82.77;100561.53;5058850;28;20591;-76
2023/07/03 10:39:59;;;;;;;7.57;2.83;;;;;;;21.96;83.49;100564.19;5060323;28;20197;-75
2023/07/03 10:42:36;;;;;;;12.03;3.90;;;;;;;21.91;85.18;100568.72;5056775;28;20182;-74
2023/07/03 10:45:14;;;;;;;6.90;2.37;;;;;;;20.82;81.26;100546.72;5048575;28;20193;-76
2023/07/03 10:47:56;;;;;;;8.00;2.77;;;;;;;21.16;86.67;100582.25;5072800;28;20216;-75
2023/07/03 10:50:37;;;;;;;11.83;4.90;;;;;;;20.76;85.94;100576.34;5045366;28;20251;-75
2023/07/03 10:53:25;;;;;;;8.00;3.67;;;;;;;20.73;88.66;100591.22;5051011;28;20213;-75
2023/07/03 10:56:23;;;;;;;10.50;5.93;;;;;;;20.54;96.63;100629.00;5054818;28;20679;-75
2023/07/03 10:59:15;;;;;;;7.83;3.00;;;;;;;20.22;96.63;100639.31;5048046;28;20225;-75
2023/07/03 11:02:04;;;;;;;10.03;4.33;;;;;;;20.10;100.00;100663.84;5057456;28;20203;-75
2023/07/03 11:04:44;;;;;;;7.13;3.63;;;;;;;19.79;100.00;100690.47;5024209;28;20207;-76
2023/07/03 11:07:37;;;;;;;6.93;2.30;;;;;;;19.58;100.00;100748.09;5056339;28;20229;-75
2023/07/03 11:10:07;;;;;;;7.03;2.37;;;;;;;18.55;100.00;100882.94;5057943;28;20185;-75
2023/07/03 11:12:54;;;;;;;8.87;3.40;;;;;;;17.73;100.00;101009.88;5060658;28;20185;-75
2023/07/03 11:15:32;;;;;;;4.67;2.10;;;;;;;17.43;100.00;100937.56;5051214;28;20560;-74
2023/07/03 11:18:09;;;;;;;6.00;1.83;;;;;;;17.56;100.00;100897.78;5062345;28;20216;-74
2023/07/03 11:20:42;;;;;;;6.03;2.17;;;;;;;17.56;100.00;100889.13;5042100;28;20205;-74